Danbury, Texas
Current Conditions -  °F | °C
As of 1:53 AM on Tuesday 21 Oct 2014 (Local Time) from KLBX Reporting Station
Clear Clear  
Wind Chill: 16°   Ceiling: Unl
Heat Index: 16°   Visibility: 10mi
Dew Point: 16°   Wind: 6mph
Humidity: 100%   Direction: 30°NNE
Pressure: 30"   Gusts: NA
Location:  29.23°N, 95.34°W
Report Text: KLBX 210653Z AUTO 03005KT 10SM CLR 16/16 A3000 RMK AO2 SLP157 T01610161 $
Loading
Personal Weather Stations






























Interactive Weather Map
Tropical Storm Tracking
New forecast layout! Learn more

10-Day Weather Forecast

Advertisements
Track Severe Weather on mobile